sensor_id;sensor_type;location;lat;lon;timestamp;temperature;humidity
17421;DHT22;8828;48.800;9.540;2023-05-16T00:01:25;13.70;99.90
17421;DHT22;8828;48.800;9.540;2023-05-16T00:03:55;13.50;99.90
17421;DHT22;8828;48.800;9.540;2023-05-16T00:06:24;13.60;99.90
17421;DHT22;8828;48.800;9.540;2023-05-16T00:08:53;13.50;99.90
17421;DHT22;8828;48.800;9.540;2023-05-16T00:11:21;13.50;99.90
17421;DHT22;8828;48.800;9.540;2023-05-16T00:13:49;13.40;99.90
17421;DHT22;8828;48.800;9.540;2023-05-16T00:16:17;13.40;99.90
17421;DHT22;8828;48.800;9.540;2023-05-16T00:18:47;13.50;99.90
17421;DHT22;8828;48.800;9.540;2023-05-16T00:21:15;13.40;99.90
17421;DHT22;8828;48.800;9.540;2023-05-16T00:23:44;13.40;99.90
17421;DHT22;8828;48.800;9.540;2023-05-16T00:26:13;13.40;99.90
17421;DHT22;8828;48.800;9.540;2023-05-16T00:28:41;13.50;99.90
17421;DHT22;8828;48.800;9.540;2023-05-16T00:31:09;13.40;99.90
17421;DHT22;8828;48.800;9.540;2023-05-16T00:33:37;13.40;99.90
17421;DHT22;8828;48.800;9.540;2023-05-16T00:36:06;13.40;99.90
17421;DHT22;8828;48.800;9.540;2023-05-16T00:38:34;13.40;99.90
17421;DHT22;8828;48.800;9.540;2023-05-16T00:41:02;13.40;99.90
17421;DHT22;8828;48.800;9.540;2023-05-16T00:43:31;13.40;99.90
17421;DHT22;8828;48.800;9.540;2023-05-16T00:45:59;13.40;99.90
17421;DHT22;8828;48.800;9.540;2023-05-16T00:48:27;13.30;99.90
17421;DHT22;8828;48.800;9.540;2023-05-16T00:50:55;13.40;99.90
17421;DHT22;8828;48.800;9.540;2023-05-16T00:53:24;13.30;99.90
17421;DHT22;8828;48.800;9.540;2023-05-16T00:55:52;13.30;99.90
17421;DHT22;8828;48.800;9.540;2023-05-16T00:58:20;13.30;99.90
17421;DHT22;8828;48.800;9.540;2023-05-16T01:00:51;13.30;99.90
17421;DHT22;8828;48.800;9.540;2023-05-16T01:03:19;13.30;99.90
17421;DHT22;8828;48.800;9.540;2023-05-16T01:05:48;13.30;99.90
17421;DHT22;8828;48.800;9.540;2023-05-16T01:08:16;13.20;99.90
17421;DHT22;8828;48.800;9.540;2023-05-16T01:10:49;13.20;99.90
17421;DHT22;8828;48.800;9.540;2023-05-16T01:13:25;13.20;99.90
17421;DHT22;8828;48.800;9.540;2023-05-16T01:16:04;13.10;99.90
17421;DHT22;8828;48.800;9.540;2023-05-16T01:18:41;13.10;99.90
17421;DHT22;8828;48.800;9.540;2023-05-16T01:21:17;13.10;99.90
17421;DHT22;8828;48.800;9.540;2023-05-16T01:23:51;13.20;99.90
17421;DHT22;8828;48.800;9.540;2023-05-16T01:26:22;13.10;99.90
17421;DHT22;8828;48.800;9.540;2023-05-16T01:28:53;13.10;99.90
17421;DHT22;8828;48.800;9.540;2023-05-16T01:31:22;13.10;99.90
17421;DHT22;8828;48.800;9.540;2023-05-16T01:33:50;13.10;99.90
17421;DHT22;8828;48.800;9.540;2023-05-16T01:36:23;13.10;99.90
17421;DHT22;8828;48.800;9.540;2023-05-16T01:39:00;13.00;99.90
17421;DHT22;8828;48.800;9.540;2023-05-16T01:41:38;13.00;99.90
17421;DHT22;8828;48.800;9.540;2023-05-16T01:44:15;13.00;99.90
17421;DHT22;8828;48.800;9.540;2023-05-16T01:46:46;12.90;99.90
17421;DHT22;8828;48.800;9.540;2023-05-16T01:49:18;12.90;99.90
17421;DHT22;8828;48.800;9.540;2023-05-16T01:51:50;12.90;99.90
17421;DHT22;8828;48.800;9.540;2023-05-16T01:54:20;12.90;99.90
17421;DHT22;8828;48.800;9.540;2023-05-16T01:56:54;12.90;99.90
17421;DHT22;8828;48.800;9.540;2023-05-16T01:59:23;12.90;99.90
17421;DHT22;8828;48.800;9.540;2023-05-16T02:01:52;12.80;99.90
17421;DHT22;8828;48.800;9.540;2023-05-16T02:04:21;12.80;99.90
17421;DHT22;8828;48.800;9.540;2023-05-16T02:06:50;12.70;99.90
17421;DHT22;8828;48.800;9.540;2023-05-16T02:09:18;12.70;99.90
17421;DHT22;8828;48.800;9.540;2023-05-16T02:11:46;12.70;99.90
17421;DHT22;8828;48.800;9.540;2023-05-16T02:14:15;12.60;99.90
17421;DHT22;8828;48.800;9.540;2023-05-16T02:16:43;12.60;99.90
17421;DHT22;8828;48.800;9.540;2023-05-16T02:19:12;12.60;99.90
17421;DHT22;8828;48.800;9.540;2023-05-16T02:21:40;12.50;99.90
17421;DHT22;8828;48.800;9.540;2023-05-16T02:24:08;12.50;99.90
17421;DHT22;8828;48.800;9.540;2023-05-16T02:26:35;12.40;99.90
17421;DHT22;8828;48.800;9.540;2023-05-16T02:29:04;12.40;99.90
17421;DHT22;8828;48.800;9.540;2023-05-16T02:31:33;12.40;99.90
17421;DHT22;8828;48.800;9.540;2023-05-16T02:34:01;12.40;99.90
17421;DHT22;8828;48.800;9.540;2023-05-16T02:36:29;12.40;99.90
17421;DHT22;8828;48.800;9.540;2023-05-16T02:38:57;12.40;99.90
17421;DHT22;8828;48.800;9.540;2023-05-16T02:41:25;12.40;99.90
17421;DHT22;8828;48.800;9.540;2023-05-16T02:43:53;12.50;99.90
17421;DHT22;8828;48.800;9.540;2023-05-16T02:46:25;12.50;99.90
17421;DHT22;8828;48.800;9.540;2023-05-16T02:48:55;12.50;99.90
17421;DHT22;8828;48.800;9.540;2023-05-16T02:51:24;12.50;99.90
17421;DHT22;8828;48.800;9.540;2023-05-16T02:53:53;12.50;99.90
17421;DHT22;8828;48.800;9.540;2023-05-16T02:56:22;12.50;99.90
17421;DHT22;8828;48.800;9.540;2023-05-16T02:58:51;12.60;99.90
17421;DHT22;8828;48.800;9.540;2023-05-16T03:01:20;12.60;99.90
17421;DHT22;8828;48.800;9.540;2023-05-16T03:03:48;12.60;99.90
17421;DHT22;8828;48.800;9.540;2023-05-16T03:06:17;12.60;99.90
17421;DHT22;8828;48.800;9.540;2023-05-16T03:08:45;12.60;99.90
17421;DHT22;8828;48.800;9.540;2023-05-16T03:11:14;12.60;99.90
17421;DHT22;8828;48.800;9.540;2023-05-16T03:13:43;12.60;99.90
17421;DHT22;8828;48.800;9.540;2023-05-16T03:16:10;12.60;99.90
17421;DHT22;8828;48.800;9.540;2023-05-16T03:18:38;12.60;99.90
17421;DHT22;8828;48.800;9.540;2023-05-16T03:21:07;12.60;99.90
17421;DHT22;8828;48.800;9.540;2023-05-16T03:23:36;12.60;99.90
17421;DHT22;8828;48.800;9.540;2023-05-16T03:26:04;12.70;99.90
17421;DHT22;8828;48.800;9.540;2023-05-16T03:28:32;12.70;99.90
17421;DHT22;8828;48.800;9.540;2023-05-16T03:31:01;12.70;99.90
17421;DHT22;8828;48.800;9.540;2023-05-16T03:33:29;12.70;99.90
17421;DHT22;8828;48.800;9.540;2023-05-16T03:35:57;12.80;99.90
17421;DHT22;8828;48.800;9.540;2023-05-16T03:38:25;12.80;99.90
17421;DHT22;8828;48.800;9.540;2023-05-16T03:40:54;12.80;99.90
17421;DHT22;8828;48.800;9.540;2023-05-16T03:43:22;12.80;99.90
17421;DHT22;8828;48.800;9.540;2023-05-16T03:45:50;12.80;99.90
17421;DHT22;8828;48.800;9.540;2023-05-16T03:48:18;12.80;99.90
17421;DHT22;8828;48.800;9.540;2023-05-16T03:50:46;12.80;99.90
17421;DHT22;8828;48.800;9.540;2023-05-16T03:53:14;12.70;99.90
17421;DHT22;8828;48.800;9.540;2023-05-16T03:55:42;12.80;99.90
17421;DHT22;8828;48.800;9.540;2023-05-16T03:58:16;12.70;99.90
17421;DHT22;8828;48.800;9.540;2023-05-16T04:00:44;12.70;99.90
17421;DHT22;8828;48.800;9.540;2023-05-16T04:03:12;12.70;99.90
17421;DHT22;8828;48.800;9.540;2023-05-16T04:05:40;12.70;99.90
17421;DHT22;8828;48.800;9.540;2023-05-16T04:08:08;12.60;99.90
17421;DHT22;8828;48.800;9.540;2023-05-16T04:10:36;12.70;99.90
17421;DHT22;8828;48.800;9.540;2023-05-16T04:13:04;12.70;99.90
17421;DHT22;8828;48.800;9.540;2023-05-16T04:15:34;12.70;99.90
17421;DHT22;8828;48.800;9.540;2023-05-16T04:18:02;12.70;99.90
17421;DHT22;8828;48.800;9.540;2023-05-16T04:20:30;12.80;99.90
17421;DHT22;8828;48.800;9.540;2023-05-16T04:22:58;12.70;99.90
17421;DHT22;8828;48.800;9.540;2023-05-16T04:25:26;12.70;99.90
17421;DHT22;8828;48.800;9.540;2023-05-16T04:27:55;12.80;99.90
17421;DHT22;8828;48.800;9.540;2023-05-16T04:30:23;12.80;99.90
17421;DHT22;8828;48.800;9.540;2023-05-16T04:32:52;12.80;99.90
17421;DHT22;8828;48.800;9.540;2023-05-16T04:35:20;12.70;99.90
17421;DHT22;8828;48.800;9.540;2023-05-16T04:37:48;12.70;99.90
17421;DHT22;8828;48.800;9.540;2023-05-16T04:40:17;12.70;99.90
17421;DHT22;8828;48.800;9.540;2023-05-16T04:42:44;12.70;99.90
17421;DHT22;8828;48.800;9.540;2023-05-16T04:45:13;12.70;99.90
17421;DHT22;8828;48.800;9.540;2023-05-16T04:47:41;12.70;99.90
17421;DHT22;8828;48.800;9.540;2023-05-16T04:50:10;12.80;99.90
17421;DHT22;8828;48.800;9.540;2023-05-16T04:52:38;12.70;99.90
17421;DHT22;8828;48.800;9.540;2023-05-16T04:55:07;12.70;99.90
17421;DHT22;8828;48.800;9.540;2023-05-16T04:57:35;12.80;99.90
17421;DHT22;8828;48.800;9.540;2023-05-16T05:00:05;12.90;99.90
17421;DHT22;8828;48.800;9.540;2023-05-16T05:02:35;13.00;99.90
17421;DHT22;8828;48.800;9.540;2023-05-16T05:05:04;13.00;99.90
17421;DHT22;8828;48.800;9.540;2023-05-16T05:07:34;13.10;99.90
17421;DHT22;8828;48.800;9.540;2023-05-16T05:10:02;13.10;99.90
17421;DHT22;8828;48.800;9.540;2023-05-16T05:12:32;13.20;99.90
17421;DHT22;8828;48.800;9.540;2023-05-16T05:15:02;13.20;99.90
17421;DHT22;8828;48.800;9.540;2023-05-16T05:17:30;13.20;99.90
17421;DHT22;8828;48.800;9.540;2023-05-16T05:19:58;13.30;99.90
17421;DHT22;8828;48.800;9.540;2023-05-16T05:22:28;13.20;99.90
17421;DHT22;8828;48.800;9.540;2023-05-16T05:24:58;13.30;99.90
17421;DHT22;8828;48.800;9.540;2023-05-16T05:27:26;13.30;99.90
17421;DHT22;8828;48.800;9.540;2023-05-16T05:29:54;13.40;99.90
17421;DHT22;8828;48.800;9.540;2023-05-16T05:32:22;13.40;99.90
17421;DHT22;8828;48.800;9.540;2023-05-16T05:34:50;13.40;99.90
17421;DHT22;8828;48.800;9.540;2023-05-16T05:37:18;13.40;99.90
17421;DHT22;8828;48.800;9.540;2023-05-16T05:39:46;13.40;99.90
17421;DHT22;8828;48.800;9.540;2023-05-16T05:42:18;13.50;99.90
17421;DHT22;8828;48.800;9.540;2023-05-16T05:44:46;13.50;99.90
17421;DHT22;8828;48.800;9.540;2023-05-16T05:47:14;13.50;99.90
17421;DHT22;8828;48.800;9.540;2023-05-16T05:49:42;13.60;99.90
17421;DHT22;8828;48.800;9.540;2023-05-16T05:52:10;13.70;99.90
17421;DHT22;8828;48.800;9.540;2023-05-16T05:54:38;13.60;99.90
17421;DHT22;8828;48.800;9.540;2023-05-16T05:57:06;13.70;99.90
17421;DHT22;8828;48.800;9.540;2023-05-16T05:59:35;13.70;99.90
17421;DHT22;8828;48.800;9.540;2023-05-16T06:02:03;13.70;99.90
17421;DHT22;8828;48.800;9.540;2023-05-16T06:04:31;13.70;99.90
17421;DHT22;8828;48.800;9.540;2023-05-16T06:07:00;13.70;99.90
17421;DHT22;8828;48.800;9.540;2023-05-16T06:09:28;13.70;99.90
17421;DHT22;8828;48.800;9.540;2023-05-16T06:11:56;13.70;99.90
17421;DHT22;8828;48.800;9.540;2023-05-16T06:14:24;13.70;99.90
17421;DHT22;8828;48.800;9.540;2023-05-16T06:16:53;13.70;99.90
17421;DHT22;8828;48.800;9.540;2023-05-16T06:19:21;13.70;99.90
17421;DHT22;8828;48.800;9.540;2023-05-16T06:21:49;13.70;99.90
17421;DHT22;8828;48.800;9.540;2023-05-16T06:24:17;13.70;99.90
17421;DHT22;8828;48.800;9.540;2023-05-16T06:26:47;13.80;99.90
17421;DHT22;8828;48.800;9.540;2023-05-16T06:29:16;13.80;99.90
17421;DHT22;8828;48.800;9.540;2023-05-16T06:31:44;13.80;99.90
17421;DHT22;8828;48.800;9.540;2023-05-16T06:34:15;13.80;99.90
17421;DHT22;8828;48.800;9.540;2023-05-16T06:36:43;13.90;99.90
17421;DHT22;8828;48.800;9.540;2023-05-16T06:39:11;13.90;99.90
17421;DHT22;8828;48.800;9.540;2023-05-16T06:41:38;13.90;99.90
17421;DHT22;8828;48.800;9.540;2023-05-16T06:44:06;13.90;99.90
17421;DHT22;8828;48.800;9.540;2023-05-16T06:46:34;13.90;99.90
17421;DHT22;8828;48.800;9.540;2023-05-16T06:49:03;13.80;99.90
17421;DHT22;8828;48.800;9.540;2023-05-16T06:51:34;13.90;99.90
17421;DHT22;8828;48.800;9.540;2023-05-16T06:54:02;13.90;99.90
17421;DHT22;8828;48.800;9.540;2023-05-16T06:56:30;13.80;99.90
17421;DHT22;8828;48.800;9.540;2023-05-16T06:58:58;13.80;99.90
17421;DHT22;8828;48.800;9.540;2023-05-16T07:01:27;13.90;99.90
17421;DHT22;8828;48.800;9.540;2023-05-16T07:03:55;13.90;99.90
17421;DHT22;8828;48.800;9.540;2023-05-16T07:06:23;14.00;99.90
17421;DHT22;8828;48.800;9.540;2023-05-16T07:08:53;14.00;99.90
17421;DHT22;8828;48.800;9.540;2023-05-16T07:11:21;14.00;99.90
17421;DHT22;8828;48.800;9.540;2023-05-16T07:13:49;14.10;99.90
17421;DHT22;8828;48.800;9.540;2023-05-16T07:16:17;14.10;99.90
17421;DHT22;8828;48.800;9.540;2023-05-16T07:18:45;14.10;99.90
17421;DHT22;8828;48.800;9.540;2023-05-16T07:21:13;14.10;99.90
17421;DHT22;8828;48.800;9.540;2023-05-16T07:23:42;14.10;99.90
17421;DHT22;8828;48.800;9.540;2023-05-16T07:26:11;14.10;99.90
17421;DHT22;8828;48.800;9.540;2023-05-16T07:28:39;14.10;99.90
17421;DHT22;8828;48.800;9.540;2023-05-16T07:31:07;14.10;99.90
17421;DHT22;8828;48.800;9.540;2023-05-16T07:33:35;14.10;99.90
17421;DHT22;8828;48.800;9.540;2023-05-16T07:36:04;14.10;99.90
17421;DHT22;8828;48.800;9.540;2023-05-16T07:38:43;14.10;99.90
17421;DHT22;8828;48.800;9.540;2023-05-16T07:41:12;14.10;99.90
17421;DHT22;8828;48.800;9.540;2023-05-16T07:43:40;14.20;99.90
17421;DHT22;8828;48.800;9.540;2023-05-16T07:46:10;14.10;99.90
17421;DHT22;8828;48.800;9.540;2023-05-16T07:48:38;14.10;99.90
17421;DHT22;8828;48.800;9.540;2023-05-16T07:51:06;14.10;99.90
17421;DHT22;8828;48.800;9.540;2023-05-16T07:53:34;14.10;99.90
17421;DHT22;8828;48.800;9.540;2023-05-16T07:56:02;14.10;99.90
17421;DHT22;8828;48.800;9.540;2023-05-16T07:58:32;14.10;99.90
17421;DHT22;8828;48.800;9.540;2023-05-16T08:01:00;14.00;99.90
17421;DHT22;8828;48.800;9.540;2023-05-16T08:03:29;14.10;99.90
17421;DHT22;8828;48.800;9.540;2023-05-16T08:05:57;14.00;99.90
17421;DHT22;8828;48.800;9.540;2023-05-16T08:08:25;14.00;99.90
17421;DHT22;8828;48.800;9.540;2023-05-16T08:10:53;14.00;99.90
17421;DHT22;8828;48.800;9.540;2023-05-16T08:13:21;14.00;99.90
17421;DHT22;8828;48.800;9.540;2023-05-16T08:15:50;14.00;99.90
17421;DHT22;8828;48.800;9.540;2023-05-16T08:18:19;14.00;99.90
17421;DHT22;8828;48.800;9.540;2023-05-16T08:20:48;14.00;99.90
17421;DHT22;8828;48.800;9.540;2023-05-16T08:23:17;14.00;99.90
17421;DHT22;8828;48.800;9.540;2023-05-16T08:25:45;14.00;99.90
17421;DHT22;8828;48.800;9.540;2023-05-16T08:28:13;14.00;99.90
17421;DHT22;8828;48.800;9.540;2023-05-16T08:30:42;14.00;99.90
17421;DHT22;8828;48.800;9.540;2023-05-16T08:33:14;14.00;99.90
17421;DHT22;8828;48.800;9.540;2023-05-16T08:35:42;14.00;99.90
17421;DHT22;8828;48.800;9.540;2023-05-16T08:38:10;14.00;99.90
17421;DHT22;8828;48.800;9.540;2023-05-16T08:40:39;14.00;99.90
17421;DHT22;8828;48.800;9.540;2023-05-16T08:43:08;14.00;99.90
17421;DHT22;8828;48.800;9.540;2023-05-16T08:45:36;14.00;99.90
17421;DHT22;8828;48.800;9.540;2023-05-16T08:48:04;14.00;99.90
17421;DHT22;8828;48.800;9.540;2023-05-16T08:50:37;14.00;99.90
17421;DHT22;8828;48.800;9.540;2023-05-16T08:53:07;14.00;99.90
17421;DHT22;8828;48.800;9.540;2023-05-16T08:55:37;14.00;99.90
17421;DHT22;8828;48.800;9.540;2023-05-16T08:58:05;14.00;99.90
17421;DHT22;8828;48.800;9.540;2023-05-16T09:00:34;14.00;99.90
17421;DHT22;8828;48.800;9.540;2023-05-16T09:03:02;14.00;99.90
17421;DHT22;8828;48.800;9.540;2023-05-16T09:05:32;14.00;99.90
17421;DHT22;8828;48.800;9.540;2023-05-16T09:08:02;14.10;99.90
17421;DHT22;8828;48.800;9.540;2023-05-16T09:10:30;14.10;99.90
17421;DHT22;8828;48.800;9.540;2023-05-16T09:12:58;14.10;99.90
17421;DHT22;8828;48.800;9.540;2023-05-16T09:15:31;14.10;99.90
17421;DHT22;8828;48.800;9.540;2023-05-16T09:18:00;14.10;99.90
17421;DHT22;8828;48.800;9.540;2023-05-16T09:20:28;14.10;99.90
17421;DHT22;8828;48.800;9.540;2023-05-16T09:22:58;14.20;99.90
17421;DHT22;8828;48.800;9.540;2023-05-16T09:25:29;14.20;99.90
17421;DHT22;8828;48.800;9.540;2023-05-16T09:27:59;14.20;99.90
17421;DHT22;8828;48.800;9.540;2023-05-16T09:30:31;14.20;99.90
17421;DHT22;8828;48.800;9.540;2023-05-16T09:33:00;14.20;99.90
17421;DHT22;8828;48.800;9.540;2023-05-16T09:35:28;14.20;99.90
17421;DHT22;8828;48.800;9.540;2023-05-16T09:38:13;14.20;99.90
17421;DHT22;8828;48.800;9.540;2023-05-16T09:40:44;14.20;99.90
17421;DHT22;8828;48.800;9.540;2023-05-16T09:43:14;14.30;99.90
17421;DHT22;8828;48.800;9.540;2023-05-16T09:45:47;14.30;99.90
17421;DHT22;8828;48.800;9.540;2023-05-16T09:48:16;14.30;99.90
17421;DHT22;8828;48.800;9.540;2023-05-16T09:50:49;14.30;99.90
17421;DHT22;8828;48.800;9.540;2023-05-16T09:53:24;14.40;99.90
17421;DHT22;8828;48.800;9.540;2023-05-16T09:56:02;14.40;99.90
17421;DHT22;8828;48.800;9.540;2023-05-16T09:58:31;14.40;99.90
17421;DHT22;8828;48.800;9.540;2023-05-16T10:01:01;14.40;99.90
17421;DHT22;8828;48.800;9.540;2023-05-16T10:03:31;14.40;99.90
17421;DHT22;8828;48.800;9.540;2023-05-16T10:05:59;14.30;99.90
17421;DHT22;8828;48.800;9.540;2023-05-16T10:08:27;14.30;99.90
17421;DHT22;8828;48.800;9.540;2023-05-16T10:10:57;14.30;99.90
17421;DHT22;8828;48.800;9.540;2023-05-16T10:13:28;14.30;99.90
17421;DHT22;8828;48.800;9.540;2023-05-16T10:15:58;14.30;99.90
17421;DHT22;8828;48.800;9.540;2023-05-16T10:18:29;14.30;99.90
17421;DHT22;8828;48.800;9.540;2023-05-16T10:21:03;14.30;99.90
17421;DHT22;8828;48.800;9.540;2023-05-16T10:23:33;14.30;99.90
17421;DHT22;8828;48.800;9.540;2023-05-16T10:26:03;14.40;99.90
17421;DHT22;8828;48.800;9.540;2023-05-16T10:28:33;14.40;99.90
17421;DHT22;8828;48.800;9.540;2023-05-16T10:31:02;14.50;99.90
17421;DHT22;8828;48.800;9.540;2023-05-16T10:33:32;14.50;99.90
17421;DHT22;8828;48.800;9.540;2023-05-16T10:36:00;14.50;99.90
17421;DHT22;8828;48.800;9.540;2023-05-16T10:38:29;14.60;99.90
17421;DHT22;8828;48.800;9.540;2023-05-16T10:40:58;14.60;99.90
17421;DHT22;8828;48.800;9.540;2023-05-16T10:43:27;14.60;99.90
17421;DHT22;8828;48.800;9.540;2023-05-16T10:46:02;14.60;99.90
17421;DHT22;8828;48.800;9.540;2023-05-16T10:48:32;14.70;99.90
17421;DHT22;8828;48.800;9.540;2023-05-16T10:51:02;14.70;99.90
17421;DHT22;8828;48.800;9.540;2023-05-16T10:53:31;14.70;99.90
17421;DHT22;8828;48.800;9.540;2023-05-16T10:56:08;14.70;99.90
17421;DHT22;8828;48.800;9.540;2023-05-16T10:58:40;14.70;99.90
17421;DHT22;8828;48.800;9.540;2023-05-16T11:01:21;14.70;99.90
17421;DHT22;8828;48.800;9.540;2023-05-16T11:04:16;14.70;99.90
17421;DHT22;8828;48.800;9.540;2023-05-16T11:06:50;14.60;99.90
17421;DHT22;8828;48.800;9.540;2023-05-16T11:09:24;14.60;99.90
17421;DHT22;8828;48.800;9.540;2023-05-16T11:12:00;14.60;99.90
17421;DHT22;8828;48.800;9.540;2023-05-16T11:14:36;14.60;99.90
17421;DHT22;8828;48.800;9.540;2023-05-16T11:17:10;14.60;99.90
17421;DHT22;8828;48.800;9.540;2023-05-16T11:19:41;14.60;99.90
17421;DHT22;8828;48.800;9.540;2023-05-16T11:24:56;14.50;99.90
17421;DHT22;8828;48.800;9.540;2023-05-16T11:27:25;14.50;99.90
17421;DHT22;8828;48.800;9.540;2023-05-16T11:29:57;14.50;99.90
17421;DHT22;8828;48.800;9.540;2023-05-16T11:32:32;14.50;99.90
17421;DHT22;8828;48.800;9.540;2023-05-16T11:35:01;14.50;99.90
17421;DHT22;8828;48.800;9.540;2023-05-16T11:37:30;14.50;99.90
17421;DHT22;8828;48.800;9.540;2023-05-16T11:39:59;14.50;99.90
17421;DHT22;8828;48.800;9.540;2023-05-16T11:42:33;14.50;99.90
17421;DHT22;8828;48.800;9.540;2023-05-16T11:45:06;14.50;99.90
17421;DHT22;8828;48.800;9.540;2023-05-16T11:47:37;14.50;99.90
17421;DHT22;8828;48.800;9.540;2023-05-16T11:50:06;14.60;99.90
17421;DHT22;8828;48.800;9.540;2023-05-16T11:52:36;14.60;99.90
17421;DHT22;8828;48.800;9.540;2023-05-16T11:55:07;14.60;99.90
17421;DHT22;8828;48.800;9.540;2023-05-16T11:57:37;14.60;99.90
17421;DHT22;8828;48.800;9.540;2023-05-16T12:00:13;14.60;99.90
17421;DHT22;8828;48.800;9.540;2023-05-16T12:02:45;14.60;99.90
17421;DHT22;8828;48.800;9.540;2023-05-16T12:05:14;14.60;99.90
17421;DHT22;8828;48.800;9.540;2023-05-16T12:07:44;14.60;99.90
17421;DHT22;8828;48.800;9.540;2023-05-16T12:10:14;14.50;99.90
17421;DHT22;8828;48.800;9.540;2023-05-16T12:12:44;14.50;99.90
17421;DHT22;8828;48.800;9.540;2023-05-16T12:15:13;14.50;99.90
17421;DHT22;8828;48.800;9.540;2023-05-16T12:17:43;14.50;99.90
17421;DHT22;8828;48.800;9.540;2023-05-16T12:20:14;14.50;99.90
17421;DHT22;8828;48.800;9.540;2023-05-16T12:22:43;14.50;99.90
17421;DHT22;8828;48.800;9.540;2023-05-16T12:25:20;14.40;99.90
17421;DHT22;8828;48.800;9.540;2023-05-16T12:27:49;14.40;99.90
17421;DHT22;8828;48.800;9.540;2023-05-16T12:30:17;14.40;99.90
17421;DHT22;8828;48.800;9.540;2023-05-16T12:32:51;14.40;99.90
17421;DHT22;8828;48.800;9.540;2023-05-16T12:35:20;14.30;99.90
17421;DHT22;8828;48.800;9.540;2023-05-16T12:37:48;14.30;99.90
17421;DHT22;8828;48.800;9.540;2023-05-16T12:40:16;14.20;99.90
17421;DHT22;8828;48.800;9.540;2023-05-16T12:42:48;14.20;99.90
17421;DHT22;8828;48.800;9.540;2023-05-16T12:45:17;14.10;99.90
17421;DHT22;8828;48.800;9.540;2023-05-16T12:47:46;14.10;99.90
17421;DHT22;8828;48.800;9.540;2023-05-16T12:50:15;14.10;99.90
17421;DHT22;8828;48.800;9.540;2023-05-16T12:52:48;14.10;99.90
17421;DHT22;8828;48.800;9.540;2023-05-16T12:55:16;14.00;99.90
17421;DHT22;8828;48.800;9.540;2023-05-16T12:57:46;14.00;99.90
17421;DHT22;8828;48.800;9.540;2023-05-16T13:00:15;14.00;99.90
17421;DHT22;8828;48.800;9.540;2023-05-16T13:02:46;14.00;99.90
17421;DHT22;8828;48.800;9.540;2023-05-16T13:05:15;14.00;99.90
17421;DHT22;8828;48.800;9.540;2023-05-16T13:07:43;13.90;99.90
17421;DHT22;8828;48.800;9.540;2023-05-16T13:10:11;14.00;99.90
17421;DHT22;8828;48.800;9.540;2023-05-16T13:12:40;14.00;99.90
17421;DHT22;8828;48.800;9.540;2023-05-16T13:15:10;14.00;99.90
17421;DHT22;8828;48.800;9.540;2023-05-16T13:17:39;14.00;99.90
17421;DHT22;8828;48.800;9.540;2023-05-16T13:20:09;14.00;99.90
17421;DHT22;8828;48.800;9.540;2023-05-16T13:22:41;14.00;99.90
17421;DHT22;8828;48.800;9.540;2023-05-16T13:25:10;14.00;99.90
17421;DHT22;8828;48.800;9.540;2023-05-16T13:27:38;14.00;99.90
17421;DHT22;8828;48.800;9.540;2023-05-16T13:30:07;14.10;99.90
17421;DHT22;8828;48.800;9.540;2023-05-16T13:32:35;14.10;99.90
17421;DHT22;8828;48.800;9.540;2023-05-16T13:35:04;14.10;99.90
17421;DHT22;8828;48.800;9.540;2023-05-16T13:37:33;14.10;99.90
17421;DHT22;8828;48.800;9.540;2023-05-16T13:40:02;14.10;99.90
17421;DHT22;8828;48.800;9.540;2023-05-16T13:42:31;14.10;99.90
17421;DHT22;8828;48.800;9.540;2023-05-16T13:44:58;14.10;99.90
17421;DHT22;8828;48.800;9.540;2023-05-16T13:47:26;14.10;99.90
17421;DHT22;8828;48.800;9.540;2023-05-16T13:49:55;14.10;99.90
17421;DHT22;8828;48.800;9.540;2023-05-16T13:52:23;14.10;99.90
17421;DHT22;8828;48.800;9.540;2023-05-16T13:54:52;14.10;99.90
17421;DHT22;8828;48.800;9.540;2023-05-16T13:57:20;14.10;99.90
17421;DHT22;8828;48.800;9.540;2023-05-16T13:59:48;14.10;99.90
17421;DHT22;8828;48.800;9.540;2023-05-16T14:02:20;14.00;99.90
17421;DHT22;8828;48.800;9.540;2023-05-16T14:04:48;14.00;99.90
17421;DHT22;8828;48.800;9.540;2023-05-16T14:07:16;14.00;99.90
17421;DHT22;8828;48.800;9.540;2023-05-16T14:09:44;14.00;99.90
17421;DHT22;8828;48.800;9.540;2023-05-16T14:12:13;14.00;99.90
17421;DHT22;8828;48.800;9.540;2023-05-16T14:14:41;13.90;99.90
17421;DHT22;8828;48.800;9.540;2023-05-16T14:17:09;13.90;99.90
17421;DHT22;8828;48.800;9.540;2023-05-16T14:19:38;13.90;99.90
17421;DHT22;8828;48.800;9.540;2023-05-16T14:22:06;13.90;99.90
17421;DHT22;8828;48.800;9.540;2023-05-16T14:24:34;14.00;99.90
17421;DHT22;8828;48.800;9.540;2023-05-16T14:27:02;13.90;99.90
17421;DHT22;8828;48.800;9.540;2023-05-16T14:29:31;13.90;99.90
17421;DHT22;8828;48.800;9.540;2023-05-16T14:31:59;13.90;99.90
17421;DHT22;8828;48.800;9.540;2023-05-16T14:34:27;13.90;99.90
17421;DHT22;8828;48.800;9.540;2023-05-16T14:36:55;13.90;99.90
17421;DHT22;8828;48.800;9.540;2023-05-16T14:39:23;13.90;99.90
17421;DHT22;8828;48.800;9.540;2023-05-16T14:41:51;13.90;99.90
17421;DHT22;8828;48.800;9.540;2023-05-16T14:44:20;13.90;99.90
17421;DHT22;8828;48.800;9.540;2023-05-16T14:46:51;13.90;99.90
17421;DHT22;8828;48.800;9.540;2023-05-16T14:49:19;13.90;99.90
17421;DHT22;8828;48.800;9.540;2023-05-16T14:51:47;14.00;99.90
17421;DHT22;8828;48.800;9.540;2023-05-16T14:54:16;14.00;99.90
17421;DHT22;8828;48.800;9.540;2023-05-16T14:56:44;14.00;99.90
17421;DHT22;8828;48.800;9.540;2023-05-16T14:59:12;14.00;99.90
17421;DHT22;8828;48.800;9.540;2023-05-16T15:01:40;14.00;99.90
17421;DHT22;8828;48.800;9.540;2023-05-16T15:04:10;14.10;99.90
17421;DHT22;8828;48.800;9.540;2023-05-16T15:06:38;14.10;99.90
17421;DHT22;8828;48.800;9.540;2023-05-16T15:09:06;14.20;99.90
17421;DHT22;8828;48.800;9.540;2023-05-16T15:11:34;14.20;99.90
17421;DHT22;8828;48.800;9.540;2023-05-16T15:14:02;14.10;99.90
17421;DHT22;8828;48.800;9.540;2023-05-16T15:16:30;14.20;99.90
17421;DHT22;8828;48.800;9.540;2023-05-16T15:18:58;14.20;99.90
17421;DHT22;8828;48.800;9.540;2023-05-16T15:21:28;14.10;99.90
17421;DHT22;8828;48.800;9.540;2023-05-16T15:23:57;14.10;99.90
17421;DHT22;8828;48.800;9.540;2023-05-16T15:26:26;14.10;99.90
17421;DHT22;8828;48.800;9.540;2023-05-16T15:28:54;14.10;99.90
17421;DHT22;8828;48.800;9.540;2023-05-16T15:31:22;14.00;99.90
17421;DHT22;8828;48.800;9.540;2023-05-16T15:33:51;14.00;99.90
17421;DHT22;8828;48.800;9.540;2023-05-16T15:36:19;14.00;99.90
17421;DHT22;8828;48.800;9.540;2023-05-16T15:38:48;13.90;99.90
17421;DHT22;8828;48.800;9.540;2023-05-16T15:41:16;13.90;99.90
17421;DHT22;8828;48.800;9.540;2023-05-16T15:44:04;13.90;99.90
17421;DHT22;8828;48.800;9.540;2023-05-16T15:46:32;13.80;99.90
17421;DHT22;8828;48.800;9.540;2023-05-16T15:49:00;13.80;99.90
17421;DHT22;8828;48.800;9.540;2023-05-16T15:51:28;13.80;99.90
17421;DHT22;8828;48.800;9.540;2023-05-16T15:53:58;13.80;99.90
17421;DHT22;8828;48.800;9.540;2023-05-16T15:56:26;13.80;99.90
17421;DHT22;8828;48.800;9.540;2023-05-16T15:58:54;13.80;99.90
17421;DHT22;8828;48.800;9.540;2023-05-16T16:01:22;13.80;99.90